createdAt,value
2019-04-26T00:01:18.327Z,1.60
2019-04-26T00:03:48.976Z,1.77
2019-04-26T00:06:18.741Z,1.67
2019-04-26T00:08:57.258Z,1.55
2019-04-26T00:11:45.759Z,1.43
2019-04-26T00:14:54.072Z,1.60
2019-04-26T00:17:34.318Z,1.53
2019-04-26T00:20:04.473Z,1.63
2019-04-26T00:22:34.573Z,1.50
2019-04-26T00:25:04.351Z,1.90
2019-04-26T00:27:33.791Z,1.80
2019-04-26T00:30:04.671Z,1.87
2019-04-26T00:32:34.115Z,1.57
2019-04-26T00:35:07.524Z,1.53
2019-04-26T00:37:38.073Z,1.60
2019-04-26T00:40:09.187Z,1.57
2019-04-26T00:42:38.892Z,1.33
2019-04-26T00:45:08.493Z,1.70
2019-04-26T00:47:39.183Z,1.50
2019-04-26T00:50:09.428Z,1.70
2019-04-26T00:52:40.647Z,1.67
2019-04-26T00:55:12.025Z,1.52
2019-04-26T00:57:43.323Z,1.60
2019-04-26T01:00:15.192Z,1.40
2019-04-26T01:02:50.376Z,1.47
2019-04-26T01:05:21.693Z,1.60
2019-04-26T01:07:54.436Z,1.43
2019-04-26T01:10:24.104Z,1.75
2019-04-26T01:12:53.677Z,1.60
2019-04-26T01:15:24.747Z,1.30
2019-04-26T01:17:55.352Z,1.45
2019-04-26T01:20:28.011Z,1.77
2019-04-26T01:23:01.097Z,1.80
2019-04-26T01:25:43.192Z,1.70
2019-04-26T01:28:28.501Z,1.97
2019-04-26T01:31:01.277Z,1.50
2019-04-26T01:33:32.837Z,1.60
2019-04-26T01:36:12.980Z,1.87
2019-04-26T01:38:34.516Z,2.02
2019-04-26T01:41:08.320Z,2.23
2019-04-26T01:44:02.291Z,1.60
2019-04-26T01:46:39.077Z,1.90
2019-04-26T01:49:10.837Z,2.27
2019-04-26T01:51:48.505Z,2.07
2019-04-26T01:54:22.466Z,1.90
2019-04-26T01:56:55.318Z,1.60
2019-04-26T01:59:25.781Z,2.37
2019-04-26T02:02:04.022Z,1.60
2019-04-26T02:04:36.701Z,1.97
2019-04-26T02:07:24.807Z,1.70
2019-04-26T02:09:56.226Z,1.77
2019-04-26T02:12:26.726Z,1.80
2019-04-26T02:14:57.895Z,1.50
2019-04-26T02:17:29.761Z,1.60
2019-04-26T02:19:59.480Z,1.87
2019-04-26T02:22:40.075Z,1.83
2019-04-26T02:25:10.047Z,2.90
2019-04-26T02:27:39.583Z,1.70
2019-04-26T02:30:11.281Z,2.07
2019-04-26T02:32:41.265Z,1.77
2019-04-26T02:35:11.604Z,2.10
2019-04-26T02:37:43.303Z,2.00
2019-04-26T02:40:16.487Z,2.40
2019-04-26T02:42:48.149Z,2.13
2019-04-26T02:46:01.495Z,2.40
2019-04-26T02:48:51.901Z,2.20
2019-04-26T02:51:30.853Z,2.20
2019-04-26T02:54:08.446Z,2.27
2019-04-26T02:56:41.339Z,2.33
2019-04-26T02:59:44.549Z,3.17
2019-04-26T03:02:25.559Z,2.77
2019-04-26T03:05:00.678Z,2.13
2019-04-26T03:07:59.924Z,1.97
2019-04-26T03:10:52.819Z,2.67
2019-04-26T03:13:44.623Z,2.37
2019-04-26T03:16:37.264Z,2.10
2019-04-26T03:19:26.476Z,2.10
2019-04-26T03:22:05.910Z,2.20
2019-04-26T03:24:48.596Z,2.77
2019-04-26T03:27:48.540Z,2.50
2019-04-26T03:30:26.225Z,3.87
2019-04-26T03:33:25.357Z,3.30
2019-04-26T03:36:37.361Z,2.97
2019-04-26T03:39:24.492Z,3.23
2019-04-26T03:42:35.135Z,2.97
2019-04-26T03:45:22.124Z,3.60
2019-04-26T03:48:18.512Z,3.80
2019-04-26T03:50:56.379Z,3.47
2019-04-26T03:53:44.572Z,3.43
2019-04-26T03:56:45.544Z,3.83
2019-04-26T04:00:24.264Z,3.50
2019-04-26T04:03:13.575Z,3.50
2019-04-26T04:05:48.722Z,4.07
2019-04-26T04:08:24.377Z,3.77
2019-04-26T04:10:58.500Z,3.70
2019-04-26T04:13:54.196Z,4.20
2019-04-26T04:16:34.758Z,4.00
2019-04-26T04:19:13.723Z,4.10
2019-04-26T04:21:56.738Z,4.03
2019-04-26T04:24:43.383Z,3.70
2019-04-26T04:27:47.851Z,3.57
2019-04-26T04:30:49.418Z,4.20
2019-04-26T04:33:43.627Z,3.80
2019-04-26T04:36:23.984Z,3.50
2019-04-26T04:39:12.823Z,3.80
2019-04-26T04:42:13.259Z,3.37
2019-04-26T04:45:07.406Z,3.90
2019-04-26T04:47:54.038Z,4.23
2019-04-26T04:50:40.942Z,4.00
2019-04-26T04:53:31.417Z,3.77
2019-04-26T04:56:36.972Z,4.47
2019-04-26T04:59:10.249Z,4.37
2019-04-26T05:02:36.314Z,4.23
2019-04-26T05:06:07.471Z,4.12
2019-04-26T05:09:00.574Z,4.20
2019-04-26T05:11:52.013Z,3.93
2019-04-26T05:14:59.524Z,3.87
2019-04-26T05:18:06.276Z,3.50
2019-04-26T05:20:49.373Z,3.70
2019-04-26T05:23:55.241Z,4.23
2019-04-26T05:27:07.293Z,4.17
2019-04-26T05:30:02.189Z,3.90
2019-04-26T05:33:07.599Z,3.87
2019-04-26T05:36:10.412Z,3.23
2019-04-26T05:38:49.617Z,3.60
2019-04-26T05:41:48.111Z,3.60
2019-04-26T05:45:11.127Z,3.72
2019-04-26T05:48:11.870Z,3.63
2019-04-26T05:51:34.313Z,4.73
2019-04-26T05:54:44.368Z,4.30
2019-04-26T05:57:45.480Z,3.90
2019-04-26T06:00:50.898Z,3.40
2019-04-26T06:04:13.212Z,3.17
2019-04-26T06:06:53.375Z,3.40
2019-04-26T06:09:50.359Z,3.27
2019-04-26T06:12:36.987Z,2.83
2019-04-26T06:15:38.701Z,3.50
2019-04-26T06:18:57.672Z,3.15
2019-04-26T06:21:57.925Z,3.20
2019-04-26T06:25:10.341Z,3.20
2019-04-26T06:28:23.862Z,3.70
2019-04-26T06:31:06.004Z,3.40
2019-04-26T06:33:44.452Z,4.00
2019-04-26T06:36:21.221Z,3.00
2019-04-26T06:39:39.178Z,2.83
2019-04-26T06:42:32.941Z,3.37
2019-04-26T06:45:28.596Z,3.70
2019-04-26T06:48:06.418Z,3.00
2019-04-26T06:50:46.913Z,2.83
2019-04-26T06:53:39.040Z,2.97
2019-04-26T06:56:51.528Z,3.37
2019-04-26T06:59:36.660Z,3.13
2019-04-26T07:03:01.035Z,4.13
2019-04-26T07:05:34.122Z,3.23
2019-04-26T07:08:57.366Z,2.80
2019-04-26T07:12:28.623Z,3.10
2019-04-26T07:15:37.817Z,2.90
2019-04-26T07:18:24.569Z,3.40
2019-04-26T07:21:28.912Z,2.77
2019-04-26T07:25:17.802Z,2.97
2019-04-26T07:28:06.355Z,3.00
2019-04-26T07:30:47.728Z,3.90
2019-04-26T07:33:58.516Z,2.62
2019-04-26T07:37:16.272Z,3.20
2019-04-26T07:40:42.879Z,3.27
2019-04-26T07:43:22.745Z,3.10
2019-04-26T07:46:28.279Z,3.43
2019-04-26T07:49:52.925Z,3.63
2019-04-26T07:53:09.309Z,4.00
2019-04-26T07:55:56.499Z,3.43
2019-04-26T07:59:07.222Z,3.00
2019-04-26T08:02:24.040Z,3.47
2019-04-26T08:04:58.991Z,3.20
2019-04-26T08:07:31.954Z,3.80
2019-04-26T08:10:12.358Z,3.50
2019-04-26T08:12:48.078Z,3.30
2019-04-26T08:15:40.945Z,3.66
2019-04-26T08:18:19.392Z,3.23
2019-04-26T08:21:10.017Z,3.10
2019-04-26T08:23:43.759Z,3.20
2019-04-26T08:26:16.414Z,3.95
2019-04-26T08:28:49.421Z,3.50
2019-04-26T08:31:24.741Z,4.33
2019-04-26T08:34:00.712Z,3.60
2019-04-26T08:36:34.843Z,4.28
2019-04-26T08:39:13.017Z,3.05
2019-04-26T08:41:44.967Z,2.87
2019-04-26T08:44:23.850Z,2.80
2019-04-26T08:47:16.406Z,3.23
2019-04-26T08:50:12.224Z,2.97
2019-04-26T08:52:43.156Z,3.00
2019-04-26T08:55:20.830Z,2.60
2019-04-26T08:57:54.525Z,2.95
2019-04-26T09:00:36.364Z,3.20
2019-04-26T09:03:14.434Z,2.37
2019-04-26T09:06:08.281Z,2.80
2019-04-26T09:08:43.621Z,3.20
2019-04-26T09:11:25.381Z,2.97
2019-04-26T09:13:49.983Z,3.10
2019-04-26T09:16:22.005Z,3.23
2019-04-26T09:18:55.056Z,2.93
2019-04-26T09:21:34.398Z,3.20
2019-04-26T09:24:26.675Z,2.77
2019-04-26T09:27:17.203Z,3.10
2019-04-26T09:30:05.040Z,3.07
2019-04-26T09:32:39.065Z,2.52
2019-04-26T09:35:11.316Z,2.90
2019-04-26T09:37:40.389Z,2.77
2019-04-26T09:40:10.904Z,3.03
2019-04-26T09:42:49.948Z,2.80
2019-04-26T09:45:38.060Z,2.75
2019-04-26T09:48:20.114Z,2.80
2019-04-26T09:50:51.772Z,3.10
2019-04-26T09:53:22.572Z,2.98
2019-04-26T09:55:51.918Z,2.60
2019-04-26T09:58:21.306Z,3.27
2019-04-26T10:00:51.487Z,3.50
2019-04-26T10:03:21.073Z,3.70
2019-04-26T10:05:52.106Z,3.00
2019-04-26T10:08:21.628Z,3.00
2019-04-26T10:10:51.729Z,3.40
2019-04-26T10:13:42.552Z,3.02
2019-04-26T10:16:26.846Z,3.20
2019-04-26T10:19:01.658Z,3.42
2019-04-26T10:21:31.065Z,4.00
2019-04-26T10:24:00.445Z,3.47
2019-04-26T10:26:30.038Z,3.70
2019-04-26T10:28:59.341Z,3.77
2019-04-26T10:31:28.744Z,3.33
2019-04-26T10:33:58.584Z,4.00
2019-04-26T10:36:30.258Z,3.70
2019-04-26T10:38:59.774Z,4.33
2019-04-26T10:41:30.525Z,4.55
2019-04-26T10:43:59.896Z,4.23
2019-04-26T10:46:29.516Z,4.13
2019-04-26T10:49:08.529Z,3.93
2019-04-26T10:51:41.869Z,4.30
2019-04-26T10:54:15.845Z,4.40
2019-04-26T10:57:10.109Z,4.50
2019-04-26T11:00:09.374Z,5.17
2019-04-26T11:02:38.710Z,5.70
2019-04-26T11:05:11.721Z,5.80
2019-04-26T11:07:49.020Z,5.87
2019-04-26T11:10:18.493Z,5.90
2019-04-26T11:12:48.673Z,5.87
2019-04-26T11:15:18.453Z,5.63
2019-04-26T11:17:49.957Z,4.43
2019-04-26T11:20:18.997Z,3.83
2019-04-26T11:22:50.346Z,4.43
2019-04-26T11:25:20.872Z,4.03
2019-04-26T11:27:51.156Z,4.93
2019-04-26T11:30:21.368Z,4.60
2019-04-26T11:32:51.414Z,4.87
2019-04-26T11:35:22.745Z,4.50
2019-04-26T11:37:55.230Z,4.00
2019-04-26T11:40:24.669Z,3.80
2019-04-26T11:42:54.338Z,3.95
2019-04-26T11:45:23.776Z,3.53
2019-04-26T11:47:56.233Z,3.87
2019-04-26T11:50:24.324Z,4.42
2019-04-26T11:52:54.494Z,5.10
2019-04-26T11:55:25.344Z,3.23
2019-04-26T11:57:55.369Z,3.40
2019-04-26T12:00:32.585Z,4.00
2019-04-26T12:03:03.372Z,3.90
2019-04-26T12:06:00.568Z,3.97
2019-04-26T12:09:01.418Z,3.30
2019-04-26T12:11:48.772Z,3.13
2019-04-26T12:14:19.549Z,2.80
2019-04-26T12:16:49.276Z,2.97
2019-04-26T12:19:18.346Z,2.90
2019-04-26T12:21:47.320Z,4.50
2019-04-26T12:24:18.658Z,3.40
2019-04-26T12:26:52.033Z,3.37
2019-04-26T12:29:19.612Z,3.23
2019-04-26T12:31:49.020Z,2.57
2019-04-26T12:34:19.152Z,2.53
2019-04-26T12:36:50.683Z,3.97
2019-04-26T12:39:27.119Z,2.77
2019-04-26T12:41:57.718Z,3.60
2019-04-26T12:44:36.453Z,3.33
2019-04-26T12:47:10.044Z,2.73
2019-04-26T12:49:40.074Z,2.90
2019-04-26T12:52:09.888Z,2.97
2019-04-26T12:54:42.968Z,2.45
2019-04-26T12:57:16.162Z,3.07
2019-04-26T12:59:44.734Z,2.43
2019-04-26T13:02:16.535Z,2.50
2019-04-26T13:04:46.535Z,2.10
2019-04-26T13:07:24.265Z,2.22
2019-04-26T13:10:12.224Z,2.70
2019-04-26T13:12:50.036Z,2.70
2019-04-26T13:16:07.247Z,2.55
2019-04-26T13:18:41.144Z,2.70
2019-04-26T13:21:08.712Z,2.50
2019-04-26T13:23:39.024Z,2.55
2019-04-26T13:26:08.397Z,2.47
2019-04-26T13:28:37.774Z,1.90
2019-04-26T13:31:07.404Z,2.10
2019-04-26T13:33:37.218Z,1.50
2019-04-26T13:36:10.010Z,2.07
2019-04-26T13:38:43.072Z,2.13
2019-04-26T13:41:10.440Z,2.60
2019-04-26T13:43:41.299Z,2.60
2019-04-26T13:46:30.586Z,2.70
2019-04-26T13:49:27.937Z,2.73
2019-04-26T13:51:57.456Z,2.23
2019-04-26T13:54:26.847Z,2.10
2019-04-26T13:56:58.335Z,2.30
2019-04-26T13:59:31.414Z,2.20
2019-04-26T14:02:13.041Z,2.03
2019-04-26T14:04:43.250Z,2.10
2019-04-26T14:07:12.978Z,2.10
2019-04-26T14:09:42.367Z,2.37
2019-04-26T14:12:18.659Z,1.60
2019-04-26T14:14:47.532Z,1.57
2019-04-26T14:17:19.245Z,1.40
2019-04-26T14:19:51.082Z,1.80
2019-04-26T14:22:24.076Z,1.80
2019-04-26T14:25:01.517Z,1.40
2019-04-26T14:27:38.678Z,1.90
2019-04-26T14:30:12.695Z,1.65
2019-04-26T14:32:44.386Z,1.70
2019-04-26T14:35:15.653Z,1.70
2019-04-26T14:37:49.779Z,2.10
2019-04-26T14:40:18.289Z,2.00
2019-04-26T14:42:48.874Z,2.17
2019-04-26T14:45:23.567Z,2.30
2019-04-26T14:47:51.411Z,1.70
2019-04-26T14:50:21.729Z,1.73
2019-04-26T14:52:51.597Z,2.02
2019-04-26T14:55:22.583Z,2.40
2019-04-26T14:57:55.923Z,1.60
2019-04-26T15:00:31.197Z,1.80
2019-04-26T15:03:07.603Z,1.77
2019-04-26T15:06:10.214Z,1.97
2019-04-26T15:08:40.560Z,1.63
2019-04-26T15:11:12.836Z,1.67
2019-04-26T15:13:47.212Z,1.70
2019-04-26T15:16:18.101Z,2.05
2019-04-26T15:18:48.535Z,2.00
2019-04-26T15:21:19.148Z,1.85
2019-04-26T15:23:49.042Z,2.13
2019-04-26T15:26:22.136Z,1.70
2019-04-26T15:28:51.500Z,1.70
2019-04-26T15:31:21.661Z,1.83
2019-04-26T15:33:52.854Z,1.77
2019-04-26T15:36:23.292Z,1.43
2019-04-26T15:38:53.901Z,1.50
2019-04-26T15:41:51.286Z,1.60
2019-04-26T15:44:47.611Z,1.35
2019-04-26T15:51:00.135Z,1.80
2019-04-26T15:53:33.182Z,1.73
2019-04-26T15:56:04.268Z,2.00
2019-04-26T15:58:33.876Z,1.57
2019-04-26T16:01:06.707Z,1.50
2019-04-26T16:03:36.749Z,2.33
2019-04-26T16:06:08.161Z,3.07
2019-04-26T16:08:42.706Z,1.50
2019-04-26T16:11:11.397Z,1.97
2019-04-26T16:13:44.660Z,2.37
2019-04-26T16:16:12.639Z,3.60
2019-04-26T16:18:43.121Z,2.80
2019-04-26T16:21:17.890Z,6.17
2019-04-26T16:23:51.171Z,2.33
2019-04-26T16:26:17.589Z,2.25
2019-04-26T16:29:08.727Z,2.30
2019-04-26T16:31:59.917Z,2.60
2019-04-26T16:34:29.582Z,1.97
2019-04-26T16:36:59.240Z,1.80
2019-04-26T16:39:38.376Z,1.90
2019-04-26T16:42:04.996Z,2.10
2019-04-26T16:44:33.881Z,2.10
2019-04-26T16:47:05.685Z,2.03
2019-04-26T16:52:07.286Z,3.03
2019-04-26T16:54:37.377Z,2.57
2019-04-26T16:57:15.205Z,3.00
2019-04-26T16:59:50.991Z,2.93
2019-04-26T17:00:32.161Z,2.17
2019-04-26T17:02:25.616Z,5.17
2019-04-26T17:04:48.653Z,2.30
2019-04-26T17:07:22.415Z,2.03
2019-04-26T17:09:57.653Z,1.80
2019-04-26T17:12:22.627Z,2.40
2019-04-26T17:14:52.628Z,2.20
2019-04-26T17:17:22.511Z,2.00
2019-04-26T17:19:54.090Z,2.60
2019-04-26T17:22:44.681Z,3.63
2019-04-26T17:25:32.095Z,2.97
2019-04-26T17:28:03.444Z,2.30
2019-04-26T17:30:41.078Z,2.17
2019-04-26T17:33:06.520Z,2.73
2019-04-26T17:35:36.600Z,2.20
2019-04-26T17:38:07.129Z,2.70
2019-04-26T17:40:38.068Z,2.57
2019-04-26T17:43:13.324Z,2.50
2019-04-26T17:45:44.190Z,2.40
2019-04-26T17:48:14.835Z,2.50
2019-04-26T17:50:45.518Z,3.17
2019-04-26T17:53:26.238Z,3.65
2019-04-26T17:55:50.867Z,4.70
2019-04-26T17:58:49.797Z,3.00
2019-04-26T18:01:09.578Z,3.55
2019-04-26T18:03:39.287Z,4.20
2019-04-26T18:06:09.558Z,5.00
2019-04-26T18:08:46.057Z,2.70
2019-04-26T18:11:18.869Z,2.35
2019-04-26T18:13:42.184Z,2.80
2019-04-26T18:16:11.612Z,2.50
2019-04-26T18:18:58.585Z,2.25
2019-04-26T18:22:05.301Z,2.10
2019-04-26T18:24:35.783Z,2.15
2019-04-26T18:27:05.164Z,2.20
2019-04-26T18:29:36.479Z,2.22
2019-04-26T18:32:05.975Z,2.50
2019-04-26T18:34:40.257Z,2.50
2019-04-26T18:37:09.776Z,2.63
2019-04-26T18:39:40.721Z,3.10
2019-04-26T18:42:10.592Z,2.50
2019-04-26T18:44:47.533Z,2.60
2019-04-26T18:47:25.628Z,2.67
2019-04-26T18:49:58.325Z,2.33
2019-04-26T18:52:26.341Z,2.52
2019-04-26T18:55:05.465Z,2.40
2019-04-26T18:57:34.030Z,2.23
2019-04-26T19:00:04.910Z,2.40
2019-04-26T19:02:35.549Z,2.50
2019-04-26T19:05:06.036Z,2.70
2019-04-26T19:07:36.051Z,2.33
2019-04-26T19:10:07.077Z,3.90
2019-04-26T19:12:37.397Z,2.57
2019-04-26T19:15:25.088Z,3.17
2019-04-26T19:18:33.876Z,2.80
2019-04-26T19:21:12.872Z,2.43
2019-04-26T19:23:42.504Z,2.77
2019-04-26T19:26:13.757Z,2.80
2019-04-26T19:28:44.636Z,2.70
2019-04-26T19:31:14.524Z,3.03
2019-04-26T19:33:47.615Z,3.27
2019-04-26T19:36:22.653Z,2.92
2019-04-26T19:38:53.231Z,2.70
2019-04-26T19:41:25.186Z,3.00
2019-04-26T19:43:56.038Z,3.27
2019-04-26T19:46:54.062Z,2.70
2019-04-26T19:49:45.597Z,2.57
2019-04-26T19:52:22.130Z,2.87
2019-04-26T19:54:55.908Z,2.53
2019-04-26T19:57:57.519Z,2.70
2019-04-26T20:00:28.086Z,3.10
2019-04-26T20:02:58.776Z,2.80
2019-04-26T20:05:28.607Z,2.80
2019-04-26T20:08:02.447Z,2.90
2019-04-26T20:10:34.606Z,2.93
2019-04-26T20:13:02.550Z,2.87
2019-04-26T20:15:32.278Z,2.55
2019-04-26T20:18:03.843Z,2.97
2019-04-26T20:20:36.209Z,3.02
2019-04-26T20:23:07.819Z,2.90
2019-04-26T20:25:36.357Z,2.98
2019-04-26T20:28:09.595Z,4.03
2019-04-26T20:31:13.062Z,3.42
2019-04-26T20:33:43.136Z,3.97
2019-04-26T20:36:13.428Z,3.93
2019-04-26T20:38:47.446Z,5.60
2019-04-26T20:41:17.839Z,3.47
2019-04-26T20:44:02.439Z,4.03
2019-04-26T20:46:24.254Z,6.10
2019-04-26T20:48:52.057Z,6.50
2019-04-26T20:51:22.497Z,22.80
2019-04-26T20:53:52.675Z,8.00
2019-04-26T20:56:22.548Z,6.04
2019-04-26T20:58:52.417Z,5.62
2019-04-26T21:01:22.803Z,3.00
2019-04-26T21:03:52.411Z,4.95
2019-04-26T21:06:22.340Z,6.80
2019-04-26T21:08:58.736Z,4.97
2019-04-26T21:11:25.481Z,3.77
2019-04-26T21:13:55.177Z,2.97
2019-04-26T21:16:24.592Z,2.73
2019-04-26T21:18:55.307Z,2.80
2019-04-26T21:21:24.710Z,3.13
2019-04-26T21:23:54.656Z,2.93
2019-04-26T21:26:51.373Z,3.00
2019-04-26T21:29:30.385Z,2.60
2019-04-26T21:32:16.453Z,2.80
2019-04-26T21:34:50.512Z,2.60
2019-04-26T21:37:49.458Z,2.60
2019-04-26T21:40:26.270Z,2.60
2019-04-26T21:42:59.524Z,2.97
2019-04-26T21:45:30.757Z,2.67
2019-04-26T21:47:58.201Z,3.30
2019-04-26T21:50:29.166Z,3.55
2019-04-26T21:53:03.482Z,3.23
2019-04-26T21:55:37.278Z,2.83
2019-04-26T21:58:05.182Z,3.27
2019-04-26T22:01:03.069Z,2.90
2019-04-26T22:03:32.792Z,3.17
2019-04-26T22:06:04.039Z,2.70
2019-04-26T22:08:35.616Z,2.30
2019-04-26T22:11:04.996Z,2.47
2019-04-26T22:13:44.703Z,3.15
2019-04-26T22:16:33.518Z,2.57
2019-04-26T22:19:09.501Z,2.50
2019-04-26T22:21:59.439Z,2.40
2019-04-26T22:24:31.625Z,2.80
2019-04-26T22:27:01.272Z,2.60
2019-04-26T22:29:33.234Z,2.77
2019-04-26T22:32:04.006Z,2.60
2019-04-26T22:34:37.348Z,2.97
2019-04-26T22:37:11.519Z,2.27
2019-04-26T22:39:39.793Z,2.80
2019-04-26T22:42:09.257Z,2.20
2019-04-26T22:44:45.916Z,2.30
2019-04-26T22:47:24.063Z,2.30
2019-04-26T22:49:53.500Z,2.30
2019-04-26T22:52:23.226Z,2.80
2019-04-26T22:54:53.850Z,2.10
2019-04-26T22:57:23.649Z,1.90
2019-04-26T22:59:54.381Z,2.07
2019-04-26T23:02:27.698Z,2.02
2019-04-26T23:05:00.157Z,2.10
2019-04-26T23:07:27.164Z,1.87
2019-04-26T23:09:56.734Z,2.43
2019-04-26T23:12:53.838Z,2.00
2019-04-26T23:15:40.190Z,2.13
2019-04-26T23:18:27.784Z,1.80
2019-04-26T23:20:59.600Z,1.70
2019-04-26T23:23:29.790Z,2.20
2019-04-26T23:26:02.340Z,2.10
2019-04-26T23:28:36.857Z,2.27
2019-04-26T23:31:07.770Z,2.00
2019-04-26T23:33:35.508Z,2.30
2019-04-26T23:36:04.889Z,2.13
2019-04-26T23:38:37.627Z,1.82
2019-04-26T23:41:07.899Z,2.27
2019-04-26T23:43:37.647Z,2.20
2019-04-26T23:46:07.311Z,2.13
2019-04-26T23:48:37.672Z,2.37
2019-04-26T23:51:08.503Z,2.17
2019-04-26T23:53:38.160Z,2.47
2019-04-26T23:56:07.673Z,2.50
2019-04-26T23:58:40.199Z,2.37
